Map

Track Data

SID SEASON NUMBER BASIN SUBBASIN NAME ISO_TIME NATURE LAT LON WMO_WIND WMO_PRES WMO_AGENCY TRACK_TYPE DIST2LAND LANDFALL IFLAG USA_AGENCY USA_ATCF_ID USA_LAT USA_LON USA_RECORD USA_STATUS USA_WIND USA_PRES USA_SSHS USA_R34_NE USA_R34_SE USA_R34_SW USA_R34_NW USA_R50_NE USA_R50_SE USA_R50_SW USA_R50_NW USA_R64_NE USA_R64_SE USA_R64_SW USA_R64_NW USA_POCI USA_ROCI USA_RMW USA_EYE TOKYO_LAT TOKYO_LON TOKYO_GRADE TOKYO_WIND TOKYO_PRES TOKYO_R50_DIR TOKYO_R50_LONG TOKYO_R50_SHORT TOKYO_R30_DIR TOKYO_R30_LONG TOKYO_R30_SHORT TOKYO_LAND CMA_LAT CMA_LON CMA_CAT CMA_WIND CMA_PRES HKO_LAT HKO_LON HKO_CAT HKO_WIND HKO_PRES NEWDELHI_LAT NEWDELHI_LON NEWDELHI_GRADE NEWDELHI_WIND NEWDELHI_PRES NEWDELHI_CI NEWDELHI_DP NEWDELHI_POCI REUNION_LAT REUNION_LON REUNION_TYPE REUNION_WIND REUNION_PRES REUNION_TNUM REUNION_CI REUNION_RMW REUNION_R34_NE REUNION_R34_SE REUNION_R34_SW REUNION_R34_NW REUNION_R50_NE REUNION_R50_SE REUNION_R50_SW REUNION_R50_NW REUNION_R64_NE REUNION_R64_SE REUNION_R64_SW REUNION_R64_NW BOM_LAT BOM_LON BOM_TYPE BOM_WIND BOM_PRES BOM_TNUM BOM_CI BOM_RMW BOM_R34_NE BOM_R34_SE BOM_R34_SW BOM_R34_NW BOM_R50_NE BOM_R50_SE BOM_R50_SW BOM_R50_NW BOM_R64_NE BOM_R64_SE BOM_R64_SW BOM_R64_NW BOM_ROCI BOM_POCI BOM_EYE BOM_POS_METHOD BOM_PRES_METHOD NADI_LAT NADI_LON NADI_CAT NADI_WIND NADI_PRES WELLINGTON_LAT WELLINGTON_LON WELLINGTON_WIND WELLINGTON_PRES DS824_LAT DS824_LON DS824_STAGE DS824_WIND DS824_PRES TD9636_LAT TD9636_LON TD9636_STAGE TD9636_WIND TD9636_PRES TD9635_LAT TD9635_LON TD9635_WIND TD9635_PRES TD9635_ROCI NEUMANN_LAT NEUMANN_LON NEUMANN_CLASS NEUMANN_WIND NEUMANN_PRES MLC_LAT MLC_LON MLC_CLASS MLC_WIND MLC_PRES USA_GUST BOM_GUST BOM_GUST_PER REUNION_GUST REUNION_GUST_PER USA_SEAHGT USA_SEARAD_NE USA_SEARAD_SE USA_SEARAD_SW USA_SEARAD_NW STORM_SPEED STORM_DIR
2004083S08056 2004 16 SI MM NOT_NAMED 2004-03-23 06:00:00 TS -8.40000 55.8000 main 819 819 O___________O_ jtwc_sh SH212004 -8.40000 55.8000 TD 20 1004 -1 -8.40000 55.8000 TC 20 1 129
2004083S08056 2004 16 SI MM NOT_NAMED 2004-03-23 09:00:00 TS -8.45000 55.8500 main 823 813 P___________P_ SH212004 -8.45000 55.8500 TD 22 1003 -1 -8.45000 55.8500 TC 22 1 137
2004083S08056 2004 16 SI MM NOT_NAMED 2004-03-23 12:00:00 TS -8.50000 55.9000 main 823 823 O___________O_ jtwc_sh SH212004 -8.50000 55.9000 TD 25 1002 -1 -8.50000 55.9000 TC 25 1 137
2004083S08056 2004 16 SI MM NOT_NAMED 2004-03-23 15:00:00 TS -8.55000 55.9500 main 832 827 P___________P_ SH212004 -8.55000 55.9500 TD 25 1002 -1 -8.55000 55.9500 TC 25 1 137
2004083S08056 2004 16 SI MM NOT_NAMED 2004-03-23 18:00:00 TS -8.60000 56.0000 main 827 827 O___________O_ jtwc_sh SH212004 -8.60000 56.0000 TD 25 1002 -1 1008 140 45 -8.60000 56.0000 TC 25 1 124
2004083S08056 2004 16 SI MM NOT_NAMED 2004-03-23 21:00:00 TS -8.62750 56.0650 main 836 831 P___________P_ SH212004 -8.62750 56.0650 TD 25 1002 -1 1008 140 45 -8.62750 56.0650 TC 25 1 137
2004083S08056 2004 16 SI MM NOT_NAMED 2004-03-24 00:00:00 TS -8.70000 56.1000 main 831 818 O___________O_ jtwc_sh SH212004 -8.70000 56.1000 TD 25 1002 -1 1008 140 45 -8.70000 56.1000 TC 25 2 174
2004083S08056 2004 16 SI MM NOT_NAMED 2004-03-24 03:00:00 TS -8.86999 56.0800 main 818 796 P___________P_ SH212004 -8.86999 56.0800 TD 25 1002 -1 -8.86999 56.0800 TC 25 4 193
2004083S08056 2004 16 SI MM NOT_NAMED 2004-03-24 06:00:00 TS -9.10000 56.0000 main 796 775 O___________O_ jtwc_sh SH212004 -9.10000 56.0000 TD 25 1002 -1 -9.10000 56.0000 TC 25 5 204
2004083S08056 2004 16 SI MM NOT_NAMED 2004-03-24 09:00:00 TS -9.33500 55.8725 main 775 738 P___________P_ SH212004 -9.33500 55.8725 TD 25 1002 -1 -9.33500 55.8725 TC 25 6 211
2004083S08056 2004 16 SI MM NOT_NAMED 2004-03-24 12:00:00 TS -9.60000 55.7000 main 738 702 O___________O_ jtwc_sh SH212004 -9.60000 55.7000 TD 25 1002 -1 1008 140 45 -9.60000 55.7000 TC 25 7 209
2004083S08056 2004 16 SI MM NOT_NAMED 2004-03-24 15:00:00 TS -9.95247 55.5226 main 696 666 P___________P_ SH212004 -9.95247 55.5226 TD 25 1002 -1 -9.95247 55.5226 TC 25 7 213
2004083S08056 2004 16 SI MM NOT_NAMED 2004-03-24 18:00:00 TS -10.2000 55.3000 main 666 638 O___________O_ jtwc_sh SH212004 -10.2000 55.3000 TD 25 1002 -1 -10.2000 55.3000 TC 25 6 247
2004083S08056 2004 16 SI MM NOT_NAMED 2004-03-24 21:00:00 TS -10.1675 55.0074 main 638 621 P___________P_ SH212004 -10.1675 55.0074 TD 25 1002 -1 -10.1675 55.0074 TC 25 6 289
2004083S08056 2004 16 SI MM NOT_NAMED 2004-03-25 00:00:00 TS -10.0000 54.7000 main 621 601 O___________O_ jtwc_sh SH212004 -10.0000 54.7000 TD 25 1002 -1 -10.0000 54.7000 TC 25 7 298
2004083S08056 2004 16 SI MM NOT_NAMED 2004-03-25 03:00:00 TS -9.85751 54.4125 main 601 594 P___________P_ SH212004 -9.85751 54.4125 TD 25 1002 -1 -9.85751 54.4125 TC 25 6 301
2004083S08056 2004 16 SI MM NOT_NAMED 2004-03-25 06:00:00 TS -9.70000 54.2000 main 594 590 O___________O_ jtwc_sh SH212004 -9.70000 54.2000 TD 25 1002 -1 -9.70000 54.2000 TC 25 4 316
2004083S08056 2004 16 SI MM NOT_NAMED 2004-03-25 09:00:00 TS -9.54997 54.1125 main 596 596 P___________P_ SH212004 -9.54997 54.1125 TD 25 1002 -1 -9.54997 54.1125 TC 25 3 343
2004083S08056 2004 16 SI MM NOT_NAMED 2004-03-25 12:00:00 TS -9.40000 54.1000 main 601 601 O___________O_ jtwc_sh SH212004 -9.40000 54.1000 TD 25 1002 -1 -9.40000 54.1000 TC 25 3 0
2004083S08056 2004 16 SI MM NOT_NAMED 2004-03-25 15:00:00 TS -9.23500 54.1000 main 613 613 P___________P_ SH212004 -9.23500 54.1000 TD 25 1002 -1 -9.23500 54.1000 TC 25 3 0
2004083S08056 2004 16 SI MM NOT_NAMED 2004-03-25 18:00:00 TS -9.10000 54.1000 main 620 620 O___________O_ jtwc_sh SH212004 -9.10000 54.1000 TD 25 1002 -1 -9.10000 54.1000 TC 25 2 348
2004083S08056 2004 16 SI MM NOT_NAMED 2004-03-25 21:00:00 TS -9.01250 54.0650 main 626 617 P___________P_ SH212004 -9.01250 54.0650 TD 25 1002 -1 -9.01250 54.0650 TC 25 1 317
2004083S08056 2004 16 SI MM NOT_NAMED 2004-03-26 00:00:00 TS -9.00000 54.0000 main 617 602 O___________O_ jtwc_sh SH212004 -9.00000 54.0000 TD 25 1002 -1 -9.00000 54.0000 TC 25 2 249
2004083S08056 2004 16 SI MM NOT_NAMED 2004-03-26 03:00:00 TS -9.07000 53.9075 main 602 586 P___________P_ SH212004 -9.07000 53.9075 TD 25 1002 -1 -9.07000 53.9075 TC 25 3 225
2004083S08056 2004 16 SI MM NOT_NAMED 2004-03-26 06:00:00 TS -9.20000 53.8000 main 586 571 O___________O_ jtwc_sh SH212004 -9.20000 53.8000 TD 25 1002 -1 -9.20000 53.8000 TC 25 3 217
2004083S08056 2004 16 SI MM NOT_NAMED 2004-03-26 09:00:00 TS -9.34250 53.7000 main 571 549 P___________P_ SH212004 -9.34250 53.7000 TD 25 1002 -1 -9.34250 53.7000 TC 25 4 213
2004083S08056 2004 16 SI MM NOT_NAMED 2004-03-26 12:00:00 TS -9.50000 53.6000 main 549 528 O___________O_ jtwc_sh SH212004 -9.50000 53.6000 TD 25 1002 -1 -9.50000 53.6000 TC 25 4 210
2004083S08056 2004 16 SI MM NOT_NAMED 2004-03-26 15:00:00 TS -9.66499 53.5075 main 528 512 P___________P_ SH212004 -9.66499 53.5075 TD 25 1002 -1 -9.66499 53.5075 TC 25 4 213
2004083S08056 2004 16 SI MM NOT_NAMED 2004-03-26 18:00:00 TS -9.80000 53.4000 main 512 497 O___________O_ jtwc_sh SH212004 -9.80000 53.4000 TD 25 1002 -1 1008 140 45 -9.80000 53.4000 TC 25 3 230
2004083S08056 2004 16 SI MM NOT_NAMED 2004-03-26 21:00:00 TS -9.87250 53.2575 main 497 479 P___________P_ SH212004 -9.87250 53.2575 TD 25 1002 -1 -9.87250 53.2575 TC 25 3 251
2004083S08056 2004 16 SI MM NOT_NAMED 2004-03-27 00:00:00 TS -9.90000 53.1000 main 479 470 O___________O_ jtwc_sh SH212004 -9.90000 53.1000 TD 25 1002 -1 -9.90000 53.1000 TC 25 3 266
2004083S08056 2004 16 SI MM NOT_NAMED 2004-03-27 03:00:00 TS -9.89248 52.9575 main 470 451 P___________P_ SH212004 -9.89248 52.9575 TD 25 1002 -1 -9.89248 52.9575 TC 25 3 270
2004083S08056 2004 16 SI MM NOT_NAMED 2004-03-27 06:00:00 TS -9.90000 52.8000 main 451 427 O___________O_ jtwc_sh SH212004 -9.90000 52.8000 TD 25 1002 -1 -9.90000 52.8000 TC 25 4 255
2004083S08056 2004 16 SI MM NOT_NAMED 2004-03-27 09:00:00 TS -9.98500 52.6075 main 427 403 P___________P_ SH212004 -9.98500 52.6075 TD 25 1002 -1 -9.98500 52.6075 TC 25 4 243
2004083S08056 2004 16 SI MM NOT_NAMED 2004-03-27 12:00:00 TS -10.1000 52.4000 main 403 378 O___________O_ jtwc_sh SH212004 -10.1000 52.4000 TD 25 1002 -1 -10.1000 52.4000 TC 25 5 239
2004083S08056 2004 16 SI MM NOT_NAMED 2004-03-27 15:00:00 TS -10.2225 52.2000 main 378 354 P___________P_ SH212004 -10.2225 52.2000 TD 25 1002 -1 -10.2225 52.2000 TC 25 4 243
2004083S08056 2004 16 SI MM NOT_NAMED 2004-03-27 18:00:00 TS -10.3000 52.0000 main 354 337 O___________O_ jtwc_sh SH212004 -10.3000 52.0000 TD 25 1002 -1 -10.3000 52.0000 TC 25 4 260
2004083S08056 2004 16 SI MM NOT_NAMED 2004-03-27 21:00:00 TS -10.2950 51.7775 main 337 328 P___________P_ SH212004 -10.2950 51.7775 TD 25 1002 -1 -10.2950 51.7775 TC 25 4 284
2004083S08056 2004 16 SI MM NOT_NAMED 2004-03-28 00:00:00 TS -10.2000 51.6000 main 328 328 O___________O_ jtwc_sh SH212004 -10.2000 51.6000 TD 25 1002 -1 -10.2000 51.6000 TC 25 4 316
2004083S08056 2004 16 SI MM NOT_NAMED 2004-03-28 03:00:00 TS -10.0375 51.5275 main 336 336 P___________P_ SH212004 -10.0375 51.5275 TD 25 1002 -1 -10.0375 51.5275 TC 25 4 347
2004083S08056 2004 16 SI MM NOT_NAMED 2004-03-28 06:00:00 TS -9.80000 51.5000 main 352 352 O___________O_ jtwc_sh SH212004 -9.80000 51.5000 TD 25 1002 -1 -9.80000 51.5000 TC 25 5 353
2004083S08056 2004 16 SI MM NOT_NAMED 2004-03-28 09:00:00 TS -9.51251 51.4575 main 377 370 P___________P_ SH212004 -9.51251 51.4575 TD 25 1002 -1 -9.51251 51.4575 TC 25 6 351
2004083S08056 2004 16 SI MM NOT_NAMED 2004-03-28 12:00:00 TS -9.20000 51.4000 main 397 O___________O_ jtwc_sh SH212004 -9.20000 51.4000 TD 25 1002 -1 -9.20000 51.4000 TC 25 6 351

About IBTrACS Database

This database is a web-friendly format of International Best Track Archive for Climate Stewardship (IBTrACS), a global best track data archive curated by NOAA dating back to 1842.

Updated: 2021-10-08